sensor_id;sensor_type;location;lat;lon;timestamp;P1;durP1;ratioP1;P2;durP2;ratioP2
61373;SDS011;47242;48.158;-1.586;2023-04-25T04:30:57;8.25;;;3.47;;
61373;SDS011;47242;48.158;-1.586;2023-04-25T04:33:22;12.82;;;3.90;;
61373;SDS011;47242;48.158;-1.586;2023-04-25T04:35:48;8.05;;;4.25;;
61373;SDS011;47242;48.158;-1.586;2023-04-25T04:38:17;6.95;;;3.20;;
61373;SDS011;47242;48.158;-1.586;2023-04-25T04:40:43;8.98;;;4.72;;
61373;SDS011;47242;48.158;-1.586;2023-04-25T04:43:09;7.13;;;4.22;;
61373;SDS011;47242;48.158;-1.586;2023-04-25T04:45:35;10.40;;;4.45;;
61373;SDS011;47242;48.158;-1.586;2023-04-25T04:48:03;11.18;;;4.22;;
61373;SDS011;47242;48.158;-1.586;2023-04-25T04:50:30;12.18;;;3.97;;
61373;SDS011;47242;48.158;-1.586;2023-04-25T04:52:57;5.53;;;3.78;;
61373;SDS011;47242;48.158;-1.586;2023-04-25T04:55:23;6.93;;;4.40;;
61373;SDS011;47242;48.158;-1.586;2023-04-25T04:57:49;8.85;;;4.60;;
61373;SDS011;47242;48.158;-1.586;2023-04-25T05:00:15;12.02;;;4.72;;
61373;SDS011;47242;48.158;-1.586;2023-04-25T05:02:40;6.47;;;3.60;;
61373;SDS011;47242;48.158;-1.586;2023-04-25T05:05:06;8.32;;;3.95;;
61373;SDS011;47242;48.158;-1.586;2023-04-25T05:07:32;7.43;;;3.85;;
61373;SDS011;47242;48.158;-1.586;2023-04-25T05:09:58;5.57;;;3.80;;
61373;SDS011;47242;48.158;-1.586;2023-04-25T05:12:24;6.18;;;4.05;;
61373;SDS011;47242;48.158;-1.586;2023-04-25T05:14:50;9.40;;;4.85;;
61373;SDS011;47242;48.158;-1.586;2023-04-25T05:17:16;7.03;;;3.58;;
61373;SDS011;47242;48.158;-1.586;2023-04-25T05:19:41;9.38;;;4.60;;
61373;SDS011;47242;48.158;-1.586;2023-04-25T05:22:07;10.93;;;4.45;;
61373;SDS011;47242;48.158;-1.586;2023-04-25T05:24:33;15.82;;;5.00;;
61373;SDS011;47242;48.158;-1.586;2023-04-25T05:26:58;9.45;;;5.28;;
61373;SDS011;47242;48.158;-1.586;2023-04-25T05:29:24;10.95;;;4.22;;
61373;SDS011;47242;48.158;-1.586;2023-04-25T05:31:49;11.15;;;4.20;;
61373;SDS011;47242;48.158;-1.586;2023-04-25T05:34:15;17.27;;;8.30;;
61373;SDS011;47242;48.158;-1.586;2023-04-25T05:36:41;12.30;;;6.63;;
61373;SDS011;47242;48.158;-1.586;2023-04-25T05:39:07;10.52;;;6.05;;
61373;SDS011;47242;48.158;-1.586;2023-04-25T05:41:33;7.57;;;5.05;;
61373;SDS011;47242;48.158;-1.586;2023-04-25T05:43:59;14.05;;;5.65;;
61373;SDS011;47242;48.158;-1.586;2023-04-25T05:46:25;10.15;;;6.53;;
61373;SDS011;47242;48.158;-1.586;2023-04-25T05:48:50;11.38;;;5.20;;
61373;SDS011;47242;48.158;-1.586;2023-04-25T05:51:16;8.85;;;5.35;;
61373;SDS011;47242;48.158;-1.586;2023-04-25T05:53:43;8.77;;;4.88;;
61373;SDS011;47242;48.158;-1.586;2023-04-25T05:56:09;7.28;;;4.40;;
61373;SDS011;47242;48.158;-1.586;2023-04-25T05:58:34;6.93;;;4.15;;
61373;SDS011;47242;48.158;-1.586;2023-04-25T06:01:01;6.47;;;4.07;;
61373;SDS011;47242;48.158;-1.586;2023-04-25T06:03:27;6.68;;;3.60;;
61373;SDS011;47242;48.158;-1.586;2023-04-25T06:05:53;7.25;;;4.13;;
61373;SDS011;47242;48.158;-1.586;2023-04-25T06:08:19;6.20;;;3.50;;
61373;SDS011;47242;48.158;-1.586;2023-04-25T06:10:44;8.32;;;3.10;;
61373;SDS011;47242;48.158;-1.586;2023-04-25T06:13:10;12.10;;;4.20;;
61373;SDS011;47242;48.158;-1.586;2023-04-25T06:15:36;8.02;;;4.70;;
61373;SDS011;47242;48.158;-1.586;2023-04-25T06:18:01;8.90;;;3.90;;
61373;SDS011;47242;48.158;-1.586;2023-04-25T06:20:27;7.85;;;4.15;;
61373;SDS011;47242;48.158;-1.586;2023-04-25T06:22:53;11.32;;;4.07;;
61373;SDS011;47242;48.158;-1.586;2023-04-25T06:25:19;6.75;;;3.88;;
61373;SDS011;47242;48.158;-1.586;2023-04-25T06:27:45;10.40;;;4.15;;
61373;SDS011;47242;48.158;-1.586;2023-04-25T06:30:11;9.57;;;3.90;;
61373;SDS011;47242;48.158;-1.586;2023-04-25T06:32:37;8.52;;;4.50;;
61373;SDS011;47242;48.158;-1.586;2023-04-25T06:35:03;11.05;;;4.28;;
61373;SDS011;47242;48.158;-1.586;2023-04-25T06:37:30;6.32;;;4.30;;
61373;SDS011;47242;48.158;-1.586;2023-04-25T06:39:56;9.10;;;4.20;;
61373;SDS011;47242;48.158;-1.586;2023-04-25T06:42:21;8.98;;;4.32;;
61373;SDS011;47242;48.158;-1.586;2023-04-25T06:44:47;6.97;;;3.65;;
61373;SDS011;47242;48.158;-1.586;2023-04-25T06:47:12;9.82;;;3.55;;
61373;SDS011;47242;48.158;-1.586;2023-04-25T06:49:38;7.20;;;4.30;;
61373;SDS011;47242;48.158;-1.586;2023-04-25T06:52:04;9.35;;;4.22;;
61373;SDS011;47242;48.158;-1.586;2023-04-25T06:54:30;9.60;;;4.82;;
61373;SDS011;47242;48.158;-1.586;2023-04-25T06:56:56;8.30;;;4.72;;
61373;SDS011;47242;48.158;-1.586;2023-04-25T06:59:22;8.23;;;4.15;;
61373;SDS011;47242;48.158;-1.586;2023-04-25T07:01:48;8.35;;;4.53;;
61373;SDS011;47242;48.158;-1.586;2023-04-25T07:04:13;8.30;;;4.47;;
61373;SDS011;47242;48.158;-1.586;2023-04-25T07:06:39;11.07;;;4.35;;
61373;SDS011;47242;48.158;-1.586;2023-04-25T07:09:08;5.57;;;3.42;;
61373;SDS011;47242;48.158;-1.586;2023-04-25T07:11:35;7.07;;;3.60;;
61373;SDS011;47242;48.158;-1.586;2023-04-25T07:14:00;7.93;;;3.80;;
61373;SDS011;47242;48.158;-1.586;2023-04-25T07:16:27;11.43;;;4.90;;
61373;SDS011;47242;48.158;-1.586;2023-04-25T07:18:52;10.15;;;4.28;;
61373;SDS011;47242;48.158;-1.586;2023-04-25T07:21:18;7.88;;;4.15;;
61373;SDS011;47242;48.158;-1.586;2023-04-25T07:23:44;10.80;;;4.30;;
61373;SDS011;47242;48.158;-1.586;2023-04-25T07:26:09;7.05;;;4.07;;
61373;SDS011;47242;48.158;-1.586;2023-04-25T07:28:35;7.75;;;3.97;;
61373;SDS011;47242;48.158;-1.586;2023-04-25T07:31:01;8.65;;;4.25;;
61373;SDS011;47242;48.158;-1.586;2023-04-25T07:33:27;9.95;;;4.32;;
61373;SDS011;47242;48.158;-1.586;2023-04-25T07:35:53;6.32;;;4.10;;
61373;SDS011;47242;48.158;-1.586;2023-04-25T07:38:19;10.85;;;4.13;;
61373;SDS011;47242;48.158;-1.586;2023-04-25T07:40:46;10.57;;;5.22;;
61373;SDS011;47242;48.158;-1.586;2023-04-25T07:43:13;8.30;;;4.40;;
61373;SDS011;47242;48.158;-1.586;2023-04-25T07:45:41;8.95;;;4.60;;
61373;SDS011;47242;48.158;-1.586;2023-04-25T07:48:07;7.22;;;4.30;;
61373;SDS011;47242;48.158;-1.586;2023-04-25T07:50:33;8.95;;;4.05;;
61373;SDS011;47242;48.158;-1.586;2023-04-25T07:52:58;7.10;;;4.70;;
61373;SDS011;47242;48.158;-1.586;2023-04-25T07:55:24;9.32;;;4.43;;
61373;SDS011;47242;48.158;-1.586;2023-04-25T07:57:50;6.97;;;4.38;;
61373;SDS011;47242;48.158;-1.586;2023-04-25T08:00:15;6.47;;;3.78;;
61373;SDS011;47242;48.158;-1.586;2023-04-25T08:02:41;6.95;;;3.70;;
61373;SDS011;47242;48.158;-1.586;2023-04-25T08:05:07;3.97;;;3.08;;
61373;SDS011;47242;48.158;-1.586;2023-04-25T08:07:36;5.22;;;3.38;;
61373;SDS011;47242;48.158;-1.586;2023-04-25T08:10:04;7.22;;;3.92;;
61373;SDS011;47242;48.158;-1.586;2023-04-25T08:12:30;8.77;;;3.53;;
61373;SDS011;47242;48.158;-1.586;2023-04-25T08:14:56;5.82;;;3.47;;
61373;SDS011;47242;48.158;-1.586;2023-04-25T08:17:22;5.60;;;3.88;;
61373;SDS011;47242;48.158;-1.586;2023-04-25T08:19:47;5.97;;;3.75;;
61373;SDS011;47242;48.158;-1.586;2023-04-25T08:22:13;7.63;;;3.60;;
61373;SDS011;47242;48.158;-1.586;2023-04-25T08:24:39;4.60;;;2.85;;
61373;SDS011;47242;48.158;-1.586;2023-04-25T08:27:06;4.95;;;3.30;;
61373;SDS011;47242;48.158;-1.586;2023-04-25T08:29:32;5.30;;;3.35;;
61373;SDS011;47242;48.158;-1.586;2023-04-25T08:31:58;6.28;;;3.83;;
61373;SDS011;47242;48.158;-1.586;2023-04-25T08:34:24;4.80;;;3.05;;
61373;SDS011;47242;48.158;-1.586;2023-04-25T08:36:50;8.55;;;3.40;;
61373;SDS011;47242;48.158;-1.586;2023-04-25T08:39:16;6.90;;;3.92;;
61373;SDS011;47242;48.158;-1.586;2023-04-25T08:41:42;6.10;;;3.53;;
61373;SDS011;47242;48.158;-1.586;2023-04-25T08:44:12;5.70;;;3.15;;
61373;SDS011;47242;48.158;-1.586;2023-04-25T08:46:38;7.10;;;3.55;;
61373;SDS011;47242;48.158;-1.586;2023-04-25T08:49:07;5.82;;;3.47;;
61373;SDS011;47242;48.158;-1.586;2023-04-25T08:51:39;6.28;;;3.78;;
61373;SDS011;47242;48.158;-1.586;2023-04-25T08:54:12;7.95;;;3.75;;
61373;SDS011;47242;48.158;-1.586;2023-04-25T08:56:48;6.88;;;3.20;;
61373;SDS011;47242;48.158;-1.586;2023-04-25T08:59:14;8.38;;;3.95;;
61373;SDS011;47242;48.158;-1.586;2023-04-25T09:01:40;5.47;;;2.97;;
61373;SDS011;47242;48.158;-1.586;2023-04-25T09:04:05;8.18;;;3.10;;
61373;SDS011;47242;48.158;-1.586;2023-04-25T09:06:31;4.30;;;2.78;;
61373;SDS011;47242;48.158;-1.586;2023-04-25T09:09:05;10.23;;;3.75;;
61373;SDS011;47242;48.158;-1.586;2023-04-25T09:11:33;6.82;;;3.95;;
61373;SDS011;47242;48.158;-1.586;2023-04-25T09:14:22;5.28;;;3.33;;
61373;SDS011;47242;48.158;-1.586;2023-04-25T09:19:25;5.22;;;3.20;;
61373;SDS011;47242;48.158;-1.586;2023-04-25T09:21:59;5.47;;;3.58;;
61373;SDS011;47242;48.158;-1.586;2023-04-25T09:27:10;9.00;;;4.30;;
61373;SDS011;47242;48.158;-1.586;2023-04-25T09:29:40;5.95;;;3.70;;
61373;SDS011;47242;48.158;-1.586;2023-04-25T09:32:22;6.85;;;3.72;;
61373;SDS011;47242;48.158;-1.586;2023-04-25T09:34:50;6.43;;;3.10;;
61373;SDS011;47242;48.158;-1.586;2023-04-25T09:37:18;5.40;;;3.28;;
61373;SDS011;47242;48.158;-1.586;2023-04-25T09:39:45;7.10;;;2.85;;
61373;SDS011;47242;48.158;-1.586;2023-04-25T09:42:13;4.15;;;2.72;;
61373;SDS011;47242;48.158;-1.586;2023-04-25T09:44:41;5.70;;;3.58;;
61373;SDS011;47242;48.158;-1.586;2023-04-25T09:47:15;4.30;;;3.00;;
61373;SDS011;47242;48.158;-1.586;2023-04-25T09:49:46;6.53;;;3.20;;
61373;SDS011;47242;48.158;-1.586;2023-04-25T09:52:16;8.23;;;3.47;;
61373;SDS011;47242;48.158;-1.586;2023-04-25T09:54:45;8.32;;;3.80;;
61373;SDS011;47242;48.158;-1.586;2023-04-25T09:59:52;5.03;;;3.10;;
61373;SDS011;47242;48.158;-1.586;2023-04-25T10:02:19;8.73;;;3.20;;
61373;SDS011;47242;48.158;-1.586;2023-04-25T10:04:50;7.00;;;3.47;;
61373;SDS011;47242;48.158;-1.586;2023-04-25T10:07:19;8.95;;;3.55;;
61373;SDS011;47242;48.158;-1.586;2023-04-25T10:09:50;4.57;;;3.28;;
61373;SDS011;47242;48.158;-1.586;2023-04-25T10:12:24;5.50;;;3.20;;
61373;SDS011;47242;48.158;-1.586;2023-04-25T10:14:52;4.28;;;2.95;;
61373;SDS011;47242;48.158;-1.586;2023-04-25T10:17:19;4.95;;;3.30;;
61373;SDS011;47242;48.158;-1.586;2023-04-25T10:19:46;5.70;;;3.10;;
61373;SDS011;47242;48.158;-1.586;2023-04-25T10:24:42;5.17;;;2.77;;
61373;SDS011;47242;48.158;-1.586;2023-04-25T10:27:09;5.15;;;2.53;;
61373;SDS011;47242;48.158;-1.586;2023-04-25T10:29:36;5.45;;;2.70;;
61373;SDS011;47242;48.158;-1.586;2023-04-25T10:32:02;3.58;;;2.13;;
61373;SDS011;47242;48.158;-1.586;2023-04-25T10:34:37;3.35;;;2.35;;
61373;SDS011;47242;48.158;-1.586;2023-04-25T10:37:11;4.22;;;2.75;;
61373;SDS011;47242;48.158;-1.586;2023-04-25T10:39:38;4.65;;;3.13;;
61373;SDS011;47242;48.158;-1.586;2023-04-25T10:44:33;6.78;;;3.80;;
61373;SDS011;47242;48.158;-1.586;2023-04-25T10:47:00;7.45;;;3.88;;
61373;SDS011;47242;48.158;-1.586;2023-04-25T10:49:31;4.65;;;3.05;;
61373;SDS011;47242;48.158;-1.586;2023-04-25T10:52:15;7.78;;;2.90;;
61373;SDS011;47242;48.158;-1.586;2023-04-25T10:54:49;4.75;;;2.90;;
61373;SDS011;47242;48.158;-1.586;2023-04-25T10:57:26;4.35;;;3.15;;
61373;SDS011;47242;48.158;-1.586;2023-04-25T11:02:42;5.53;;;3.50;;
61373;SDS011;47242;48.158;-1.586;2023-04-25T11:07:57;4.70;;;3.00;;
61373;SDS011;47242;48.158;-1.586;2023-04-25T11:10:26;4.93;;;3.05;;
61373;SDS011;47242;48.158;-1.586;2023-04-25T11:12:56;5.97;;;3.28;;
61373;SDS011;47242;48.158;-1.586;2023-04-25T11:15:22;6.35;;;3.33;;
61373;SDS011;47242;48.158;-1.586;2023-04-25T11:17:50;5.88;;;2.97;;
61373;SDS011;47242;48.158;-1.586;2023-04-25T11:20:16;4.82;;;3.15;;
61373;SDS011;47242;48.158;-1.586;2023-04-25T11:22:42;4.47;;;2.63;;
61373;SDS011;47242;48.158;-1.586;2023-04-25T11:25:10;7.68;;;3.47;;
61373;SDS011;47242;48.158;-1.586;2023-04-25T11:28:00;6.32;;;3.03;;
61373;SDS011;47242;48.158;-1.586;2023-04-25T11:30:26;7.25;;;2.88;;
61373;SDS011;47242;48.158;-1.586;2023-04-25T11:32:52;4.10;;;2.70;;
61373;SDS011;47242;48.158;-1.586;2023-04-25T11:35:19;5.13;;;3.10;;
61373;SDS011;47242;48.158;-1.586;2023-04-25T11:37:47;5.75;;;2.45;;
61373;SDS011;47242;48.158;-1.586;2023-04-25T11:40:14;4.90;;;2.80;;
61373;SDS011;47242;48.158;-1.586;2023-04-25T11:42:44;4.18;;;2.47;;
61373;SDS011;47242;48.158;-1.586;2023-04-25T11:45:11;6.78;;;2.78;;
61373;SDS011;47242;48.158;-1.586;2023-04-25T11:47:37;4.85;;;2.78;;
61373;SDS011;47242;48.158;-1.586;2023-04-25T11:50:03;5.97;;;3.05;;
61373;SDS011;47242;48.158;-1.586;2023-04-25T11:52:41;7.72;;;3.50;;
61373;SDS011;47242;48.158;-1.586;2023-04-25T11:55:25;5.70;;;2.80;;
61373;SDS011;47242;48.158;-1.586;2023-04-25T11:57:51;3.58;;;2.28;;
61373;SDS011;47242;48.158;-1.586;2023-04-25T12:00:17;4.82;;;2.63;;
61373;SDS011;47242;48.158;-1.586;2023-04-25T12:02:55;4.38;;;2.25;;
61373;SDS011;47242;48.158;-1.586;2023-04-25T12:05:29;5.57;;;2.97;;
61373;SDS011;47242;48.158;-1.586;2023-04-25T12:07:58;6.30;;;2.60;;
61373;SDS011;47242;48.158;-1.586;2023-04-25T12:10:36;5.60;;;3.00;;
61373;SDS011;47242;48.158;-1.586;2023-04-25T12:13:17;4.18;;;2.58;;
61373;SDS011;47242;48.158;-1.586;2023-04-25T12:15:46;2.75;;;2.20;;
61373;SDS011;47242;48.158;-1.586;2023-04-25T12:18:11;3.42;;;2.42;;
61373;SDS011;47242;48.158;-1.586;2023-04-25T12:20:37;4.32;;;2.47;;
61373;SDS011;47242;48.158;-1.586;2023-04-25T12:23:05;4.90;;;2.28;;
61373;SDS011;47242;48.158;-1.586;2023-04-25T12:28:13;4.25;;;2.58;;
61373;SDS011;47242;48.158;-1.586;2023-04-25T12:33:35;3.15;;;2.00;;
61373;SDS011;47242;48.158;-1.586;2023-04-25T12:36:02;4.35;;;2.65;;
61373;SDS011;47242;48.158;-1.586;2023-04-25T12:38:36;4.45;;;2.47;;
61373;SDS011;47242;48.158;-1.586;2023-04-25T12:41:03;4.20;;;2.28;;
61373;SDS011;47242;48.158;-1.586;2023-04-25T12:43:29;3.25;;;2.13;;
61373;SDS011;47242;48.158;-1.586;2023-04-25T12:45:55;3.88;;;1.80;;
61373;SDS011;47242;48.158;-1.586;2023-04-25T12:48:21;6.93;;;2.58;;
61373;SDS011;47242;48.158;-1.586;2023-04-25T12:50:48;5.00;;;3.03;;
61373;SDS011;47242;48.158;-1.586;2023-04-25T12:53:19;4.05;;;2.30;;
61373;SDS011;47242;48.158;-1.586;2023-04-25T12:58:12;5.53;;;2.28;;
61373;SDS011;47242;48.158;-1.586;2023-04-25T13:00:40;3.00;;;2.10;;
61373;SDS011;47242;48.158;-1.586;2023-04-25T13:03:07;5.10;;;2.40;;
61373;SDS011;47242;48.158;-1.586;2023-04-25T13:05:33;2.85;;;1.80;;
61373;SDS011;47242;48.158;-1.586;2023-04-25T13:07:58;5.00;;;1.83;;
61373;SDS011;47242;48.158;-1.586;2023-04-25T13:10:24;3.97;;;2.78;;
61373;SDS011;47242;48.158;-1.586;2023-04-25T13:12:50;3.67;;;2.25;;
61373;SDS011;47242;48.158;-1.586;2023-04-25T13:15:15;6.10;;;3.00;;
61373;SDS011;47242;48.158;-1.586;2023-04-25T13:17:41;7.80;;;2.40;;
61373;SDS011;47242;48.158;-1.586;2023-04-25T13:20:07;7.20;;;2.90;;
61373;SDS011;47242;48.158;-1.586;2023-04-25T13:22:35;7.65;;;3.40;;
61373;SDS011;47242;48.158;-1.586;2023-04-25T13:25:02;6.45;;;2.38;;
61373;SDS011;47242;48.158;-1.586;2023-04-25T13:27:28;4.28;;;2.60;;
61373;SDS011;47242;48.158;-1.586;2023-04-25T13:29:53;4.97;;;2.75;;
61373;SDS011;47242;48.158;-1.586;2023-04-25T13:32:19;5.53;;;2.45;;
61373;SDS011;47242;48.158;-1.586;2023-04-25T13:34:45;4.25;;;2.92;;
61373;SDS011;47242;48.158;-1.586;2023-04-25T13:37:10;6.72;;;2.90;;
61373;SDS011;47242;48.158;-1.586;2023-04-25T13:39:36;5.93;;;2.92;;
61373;SDS011;47242;48.158;-1.586;2023-04-25T13:42:02;7.82;;;3.28;;
61373;SDS011;47242;48.158;-1.586;2023-04-25T13:44:28;7.25;;;2.78;;
61373;SDS011;47242;48.158;-1.586;2023-04-25T13:46:53;4.40;;;2.58;;
61373;SDS011;47242;48.158;-1.586;2023-04-25T13:49:19;4.68;;;2.90;;
61373;SDS011;47242;48.158;-1.586;2023-04-25T13:51:45;4.22;;;2.50;;
61373;SDS011;47242;48.158;-1.586;2023-04-25T13:54:10;6.13;;;3.58;;
61373;SDS011;47242;48.158;-1.586;2023-04-25T13:56:36;3.95;;;2.80;;
61373;SDS011;47242;48.158;-1.586;2023-04-25T13:59:02;4.82;;;3.00;;
61373;SDS011;47242;48.158;-1.586;2023-04-25T14:01:28;6.18;;;2.95;;
61373;SDS011;47242;48.158;-1.586;2023-04-25T14:03:56;6.75;;;2.92;;
61373;SDS011;47242;48.158;-1.586;2023-04-25T14:06:21;4.45;;;3.03;;
61373;SDS011;47242;48.158;-1.586;2023-04-25T14:08:49;5.55;;;2.85;;
61373;SDS011;47242;48.158;-1.586;2023-04-25T14:11:15;5.50;;;3.00;;
61373;SDS011;47242;48.158;-1.586;2023-04-25T14:13:43;6.25;;;3.63;;
61373;SDS011;47242;48.158;-1.586;2023-04-25T14:16:09;6.63;;;3.33;;
61373;SDS011;47242;48.158;-1.586;2023-04-25T14:18:35;6.47;;;3.20;;
61373;SDS011;47242;48.158;-1.586;2023-04-25T14:21:00;4.32;;;3.03;;
61373;SDS011;47242;48.158;-1.586;2023-04-25T14:23:26;7.45;;;3.50;;
61373;SDS011;47242;48.158;-1.586;2023-04-25T14:25:52;5.00;;;3.53;;
61373;SDS011;47242;48.158;-1.586;2023-04-25T14:28:17;4.82;;;2.97;;
61373;SDS011;47242;48.158;-1.586;2023-04-25T14:30:43;6.80;;;3.00;;
61373;SDS011;47242;48.158;-1.586;2023-04-25T14:33:08;7.30;;;4.00;;
61373;SDS011;47242;48.158;-1.586;2023-04-25T14:35:34;6.80;;;3.35;;
61373;SDS011;47242;48.158;-1.586;2023-04-25T14:38:00;7.05;;;3.35;;
61373;SDS011;47242;48.158;-1.586;2023-04-25T14:40:26;6.57;;;3.40;;
61373;SDS011;47242;48.158;-1.586;2023-04-25T14:42:51;7.65;;;2.90;;
61373;SDS011;47242;48.158;-1.586;2023-04-25T14:45:17;5.75;;;3.50;;
61373;SDS011;47242;48.158;-1.586;2023-04-25T14:47:43;6.65;;;3.17;;
61373;SDS011;47242;48.158;-1.586;2023-04-25T14:50:09;4.97;;;3.60;;
61373;SDS011;47242;48.158;-1.586;2023-04-25T14:52:35;6.10;;;3.13;;
61373;SDS011;47242;48.158;-1.586;2023-04-25T14:55:01;5.65;;;3.17;;
61373;SDS011;47242;48.158;-1.586;2023-04-25T14:57:30;6.57;;;3.35;;
61373;SDS011;47242;48.158;-1.586;2023-04-25T14:59:56;6.47;;;3.60;;
61373;SDS011;47242;48.158;-1.586;2023-04-25T15:02:23;4.30;;;3.20;;
61373;SDS011;47242;48.158;-1.586;2023-04-25T15:04:49;5.60;;;3.60;;
61373;SDS011;47242;48.158;-1.586;2023-04-25T15:07:14;6.30;;;3.00;;
61373;SDS011;47242;48.158;-1.586;2023-04-25T15:09:40;5.20;;;3.10;;
61373;SDS011;47242;48.158;-1.586;2023-04-25T15:12:06;7.53;;;3.78;;
61373;SDS011;47242;48.158;-1.586;2023-04-25T15:14:32;5.00;;;3.25;;
61373;SDS011;47242;48.158;-1.586;2023-04-25T15:16:58;6.55;;;2.90;;
61373;SDS011;47242;48.158;-1.586;2023-04-25T15:19:25;6.03;;;3.80;;
61373;SDS011;47242;48.158;-1.586;2023-04-25T15:21:50;6.68;;;3.22;;
61373;SDS011;47242;48.158;-1.586;2023-04-25T15:24:16;6.65;;;3.03;;
61373;SDS011;47242;48.158;-1.586;2023-04-25T15:26:43;5.82;;;3.17;;
61373;SDS011;47242;48.158;-1.586;2023-04-25T15:29:08;6.15;;;3.97;;
61373;SDS011;47242;48.158;-1.586;2023-04-25T15:31:34;5.13;;;3.00;;
61373;SDS011;47242;48.158;-1.586;2023-04-25T15:34:00;8.07;;;3.70;;
61373;SDS011;47242;48.158;-1.586;2023-04-25T15:36:26;6.05;;;3.67;;
61373;SDS011;47242;48.158;-1.586;2023-04-25T15:38:52;5.95;;;3.35;;
61373;SDS011;47242;48.158;-1.586;2023-04-25T15:41:17;8.18;;;3.92;;
61373;SDS011;47242;48.158;-1.586;2023-04-25T15:43:43;9.05;;;4.15;;
61373;SDS011;47242;48.158;-1.586;2023-04-25T15:46:09;6.25;;;4.20;;
61373;SDS011;47242;48.158;-1.586;2023-04-25T15:48:34;6.50;;;3.72;;
61373;SDS011;47242;48.158;-1.586;2023-04-25T15:51:00;5.28;;;3.60;;
61373;SDS011;47242;48.158;-1.586;2023-04-25T15:53:26;4.80;;;3.08;;
61373;SDS011;47242;48.158;-1.586;2023-04-25T15:55:51;6.15;;;3.38;;
61373;SDS011;47242;48.158;-1.586;2023-04-25T15:58:17;6.00;;;3.10;;
61373;SDS011;47242;48.158;-1.586;2023-04-25T16:00:42;6.05;;;3.42;;
61373;SDS011;47242;48.158;-1.586;2023-04-25T16:03:09;7.07;;;3.55;;
61373;SDS011;47242;48.158;-1.586;2023-04-25T16:05:35;5.35;;;3.22;;
61373;SDS011;47242;48.158;-1.586;2023-04-25T16:08:01;4.35;;;2.42;;
61373;SDS011;47242;48.158;-1.586;2023-04-25T16:10:28;5.20;;;2.88;;
61373;SDS011;47242;48.158;-1.586;2023-04-25T16:12:54;6.10;;;2.58;;
61373;SDS011;47242;48.158;-1.586;2023-04-25T16:15:19;6.03;;;3.25;;
61373;SDS011;47242;48.158;-1.586;2023-04-25T16:17:45;6.82;;;3.45;;
61373;SDS011;47242;48.158;-1.586;2023-04-25T16:20:11;8.50;;;3.20;;
61373;SDS011;47242;48.158;-1.586;2023-04-25T16:22:41;5.95;;;3.22;;
61373;SDS011;47242;48.158;-1.586;2023-04-25T16:25:08;3.85;;;2.60;;
61373;SDS011;47242;48.158;-1.586;2023-04-25T16:27:34;4.80;;;2.05;;
61373;SDS011;47242;48.158;-1.586;2023-04-25T16:30:03;5.05;;;2.38;;
61373;SDS011;47242;48.158;-1.586;2023-04-25T16:32:30;5.47;;;2.78;;
61373;SDS011;47242;48.158;-1.586;2023-04-25T16:34:56;6.22;;;2.70;;
61373;SDS011;47242;48.158;-1.586;2023-04-25T16:37:22;6.38;;;2.25;;
61373;SDS011;47242;48.158;-1.586;2023-04-25T16:39:48;5.32;;;2.70;;
61373;SDS011;47242;48.158;-1.586;2023-04-25T16:42:14;5.88;;;2.67;;
61373;SDS011;47242;48.158;-1.586;2023-04-25T16:44:40;4.28;;;2.30;;
61373;SDS011;47242;48.158;-1.586;2023-04-25T16:47:05;6.10;;;2.65;;
61373;SDS011;47242;48.158;-1.586;2023-04-25T16:49:31;4.05;;;2.17;;
61373;SDS011;47242;48.158;-1.586;2023-04-25T16:51:57;4.82;;;2.88;;
61373;SDS011;47242;48.158;-1.586;2023-04-25T16:54:23;3.92;;;2.60;;
61373;SDS011;47242;48.158;-1.586;2023-04-25T16:56:49;4.93;;;2.38;;
61373;SDS011;47242;48.158;-1.586;2023-04-25T16:59:16;4.68;;;2.45;;
61373;SDS011;47242;48.158;-1.586;2023-04-25T17:01:42;3.47;;;2.10;;
61373;SDS011;47242;48.158;-1.586;2023-04-25T17:04:07;4.70;;;2.83;;
61373;SDS011;47242;48.158;-1.586;2023-04-25T17:06:33;4.93;;;2.15;;
61373;SDS011;47242;48.158;-1.586;2023-04-25T17:08:59;4.00;;;2.40;;
61373;SDS011;47242;48.158;-1.586;2023-04-25T17:11:25;5.28;;;2.20;;
61373;SDS011;47242;48.158;-1.586;2023-04-25T17:13:51;5.03;;;2.35;;
61373;SDS011;47242;48.158;-1.586;2023-04-25T17:16:20;4.65;;;3.05;;
61373;SDS011;47242;48.158;-1.586;2023-04-25T17:18:49;4.60;;;2.65;;
61373;SDS011;47242;48.158;-1.586;2023-04-25T17:21:15;3.67;;;2.38;;
61373;SDS011;47242;48.158;-1.586;2023-04-25T17:23:42;6.47;;;2.50;;
61373;SDS011;47242;48.158;-1.586;2023-04-25T17:26:12;5.43;;;2.80;;
61373;SDS011;47242;48.158;-1.586;2023-04-25T17:28:38;13.55;;;5.13;;
61373;SDS011;47242;48.158;-1.586;2023-04-25T17:31:06;11.18;;;5.32;;
61373;SDS011;47242;48.158;-1.586;2023-04-25T17:33:32;5.68;;;3.53;;
61373;SDS011;47242;48.158;-1.586;2023-04-25T17:35:58;7.03;;;2.70;;
61373;SDS011;47242;48.158;-1.586;2023-04-25T17:38:23;3.95;;;2.53;;
61373;SDS011;47242;48.158;-1.586;2023-04-25T17:40:49;5.30;;;2.55;;
61373;SDS011;47242;48.158;-1.586;2023-04-25T17:43:15;4.18;;;2.42;;
61373;SDS011;47242;48.158;-1.586;2023-04-25T17:45:41;5.63;;;3.17;;
61373;SDS011;47242;48.158;-1.586;2023-04-25T17:48:06;6.43;;;2.60;;
61373;SDS011;47242;48.158;-1.586;2023-04-25T17:50:32;5.63;;;3.03;;
61373;SDS011;47242;48.158;-1.586;2023-04-25T17:52:58;5.72;;;2.58;;
61373;SDS011;47242;48.158;-1.586;2023-04-25T17:55:27;7.53;;;2.70;;
61373;SDS011;47242;48.158;-1.586;2023-04-25T17:57:53;6.18;;;2.97;;
61373;SDS011;47242;48.158;-1.586;2023-04-25T18:00:19;6.80;;;3.55;;
61373;SDS011;47242;48.158;-1.586;2023-04-25T18:02:45;6.78;;;3.13;;
61373;SDS011;47242;48.158;-1.586;2023-04-25T18:05:12;4.70;;;2.90;;
61373;SDS011;47242;48.158;-1.586;2023-04-25T18:07:39;6.18;;;4.00;;
61373;SDS011;47242;48.158;-1.586;2023-04-25T18:10:06;7.82;;;4.30;;
61373;SDS011;47242;48.158;-1.586;2023-04-25T18:12:34;7.28;;;3.88;;
61373;SDS011;47242;48.158;-1.586;2023-04-25T18:15:01;6.40;;;3.28;;
61373;SDS011;47242;48.158;-1.586;2023-04-25T18:17:34;5.43;;;3.08;;
61373;SDS011;47242;48.158;-1.586;2023-04-25T18:20:09;5.20;;;3.03;;
61373;SDS011;47242;48.158;-1.586;2023-04-25T18:22:40;5.40;;;2.78;;
61373;SDS011;47242;48.158;-1.586;2023-04-25T18:25:07;9.48;;;3.60;;
61373;SDS011;47242;48.158;-1.586;2023-04-25T18:27:35;5.85;;;3.70;;
61373;SDS011;47242;48.158;-1.586;2023-04-25T18:30:02;4.95;;;2.97;;
61373;SDS011;47242;48.158;-1.586;2023-04-25T18:32:29;5.65;;;3.50;;
61373;SDS011;47242;48.158;-1.586;2023-04-25T18:34:55;7.10;;;2.90;;
61373;SDS011;47242;48.158;-1.586;2023-04-25T18:37:21;4.53;;;3.00;;
61373;SDS011;47242;48.158;-1.586;2023-04-25T18:39:47;5.22;;;3.45;;
61373;SDS011;47242;48.158;-1.586;2023-04-25T18:42:13;4.72;;;2.70;;
61373;SDS011;47242;48.158;-1.586;2023-04-25T18:44:38;5.65;;;2.90;;
61373;SDS011;47242;48.158;-1.586;2023-04-25T18:47:05;4.43;;;2.95;;
61373;SDS011;47242;48.158;-1.586;2023-04-25T18:49:32;5.50;;;3.75;;
61373;SDS011;47242;48.158;-1.586;2023-04-25T18:51:57;5.88;;;3.25;;
61373;SDS011;47242;48.158;-1.586;2023-04-25T18:54:23;5.13;;;3.45;;
61373;SDS011;47242;48.158;-1.586;2023-04-25T18:56:49;6.82;;;3.45;;
61373;SDS011;47242;48.158;-1.586;2023-04-25T18:59:15;6.93;;;3.65;;
61373;SDS011;47242;48.158;-1.586;2023-04-25T19:01:42;5.57;;;3.40;;
61373;SDS011;47242;48.158;-1.586;2023-04-25T19:04:08;4.03;;;3.13;;
61373;SDS011;47242;48.158;-1.586;2023-04-25T19:06:34;4.10;;;2.92;;
61373;SDS011;47242;48.158;-1.586;2023-04-25T19:09:00;6.38;;;3.80;;
61373;SDS011;47242;48.158;-1.586;2023-04-25T19:11:26;5.28;;;3.40;;
61373;SDS011;47242;48.158;-1.586;2023-04-25T19:13:52;8.30;;;4.10;;
61373;SDS011;47242;48.158;-1.586;2023-04-25T19:16:20;10.30;;;5.30;;
61373;SDS011;47242;48.158;-1.586;2023-04-25T19:18:46;14.43;;;6.47;;
61373;SDS011;47242;48.158;-1.586;2023-04-25T19:21:12;7.53;;;4.90;;
61373;SDS011;47242;48.158;-1.586;2023-04-25T19:23:38;7.68;;;4.53;;
61373;SDS011;47242;48.158;-1.586;2023-04-25T19:26:05;12.32;;;4.80;;
61373;SDS011;47242;48.158;-1.586;2023-04-25T19:28:31;8.85;;;4.85;;